createdAt,value
2017-12-13T00:00:18.806Z,1010.01
2017-12-13T00:01:28.603Z,1010.06
2017-12-13T00:02:37.289Z,1010.04
2017-12-13T00:03:46.233Z,1010.02
2017-12-13T00:04:55.166Z,1010.02
2017-12-13T00:06:04.372Z,1010.01
2017-12-13T00:07:13.845Z,1010.04
2017-12-13T00:08:23.071Z,1010
2017-12-13T00:09:32.301Z,1009.97
2017-12-13T00:10:41.241Z,1009.96
2017-12-13T00:11:50.441Z,1009.96
2017-12-13T00:12:59.669Z,1009.95
2017-12-13T00:14:09.118Z,1009.94
2017-12-13T00:15:18.047Z,1009.9
2017-12-13T00:16:27.520Z,1009.9
2017-12-13T00:17:36.464Z,1009.9
2017-12-13T00:18:46.265Z,1009.86
2017-12-13T00:19:55.204Z,1009.89
2017-12-13T00:21:04.677Z,1009.93
2017-12-13T00:22:13.366Z,1009.85
2017-12-13T00:23:23.290Z,1009.87
2017-12-13T00:24:32.532Z,1009.84
2017-12-13T00:25:41.473Z,1009.83
2017-12-13T00:26:50.169Z,1009.82
2017-12-13T00:27:58.850Z,1009.81
2017-12-13T00:29:08.332Z,1009.79
2017-12-13T00:30:17.292Z,1009.75
2017-12-13T00:31:25.983Z,1009.73
2017-12-13T00:32:34.939Z,1009.72
2017-12-13T00:33:44.393Z,1009.72
2017-12-13T00:34:53.340Z,1009.68
2017-12-13T00:36:02.018Z,1009.63
2017-12-13T00:37:11.225Z,1009.64
2017-12-13T00:38:20.441Z,1009.59
2017-12-13T00:39:29.386Z,1009.59
2017-12-13T00:40:38.327Z,1009.57
2017-12-13T00:41:48.337Z,1009.62
2017-12-13T00:42:57.277Z,1009.54
2017-12-13T00:44:06.228Z,1009.58
2017-12-13T00:45:15.956Z,1009.53
2017-12-13T00:46:24.902Z,1009.54
2017-12-13T00:47:33.618Z,1009.52
2017-12-13T00:48:43.077Z,1009.53
2017-12-13T00:49:52.027Z,1009.51
2017-12-13T00:51:00.985Z,1009.52
2017-12-13T00:52:09.921Z,1009.53
2017-12-13T00:53:18.854Z,1009.54
2017-12-13T00:54:27.796Z,1009.51
2017-12-13T00:55:37.004Z,1009.46
2017-12-13T00:56:46.206Z,1009.45
2017-12-13T00:57:55.407Z,1009.37
2017-12-13T00:59:04.857Z,1009.38
2017-12-13T01:00:14.058Z,1009.41
2017-12-13T01:01:23.255Z,1009.37
2017-12-13T01:02:32.461Z,1009.35
2017-12-13T01:03:41.672Z,1009.35
2017-12-13T01:04:50.868Z,1009.3
2017-12-13T01:06:00.597Z,1009.28
2017-12-13T01:07:09.786Z,1009.33
2017-12-13T01:08:19.250Z,1009.3
2017-12-13T01:09:28.191Z,1009.29
2017-12-13T01:10:37.917Z,1009.3
2017-12-13T01:11:47.412Z,1009.33
2017-12-13T01:12:56.614Z,1009.26
2017-12-13T01:14:05.826Z,1009.28
2017-12-13T01:15:14.759Z,1009.29
2017-12-13T01:16:23.697Z,1009.26
2017-12-13T01:17:32.641Z,1009.29
2017-12-13T01:18:41.845Z,1009.3
2017-12-13T01:19:50.779Z,1009.28
2017-12-13T01:20:59.713Z,1009.33
2017-12-13T01:22:08.918Z,1009.32
2017-12-13T01:23:17.859Z,1009.36
2017-12-13T01:24:26.799Z,1009.32
2017-12-13T01:25:35.999Z,1009.34
2017-12-13T01:26:45.210Z,1009.35
2017-12-13T01:27:54.661Z,1009.35
2017-12-13T01:29:03.593Z,1009.36
2017-12-13T01:30:12.789Z,1009.37
2017-12-13T01:31:22.255Z,1009.36
2017-12-13T01:32:31.445Z,1009.34
2017-12-13T01:33:40.379Z,1009.35
2017-12-13T01:34:49.565Z,1009.35
2017-12-13T01:35:58.760Z,1009.39
2017-12-13T01:37:07.952Z,1009.42
2017-12-13T01:38:17.175Z,1009.39
2017-12-13T01:39:26.124Z,1009.42
2017-12-13T01:40:35.067Z,1009.36
2017-12-13T01:41:44.009Z,1009.37
2017-12-13T01:42:52.952Z,1009.34
2017-12-13T01:44:02.150Z,1009.35
2017-12-13T01:45:11.343Z,1009.34
2017-12-13T01:46:20.276Z,1009.42
2017-12-13T01:47:29.211Z,1009.41
2017-12-13T01:48:37.892Z,1009.38
2017-12-13T01:49:46.829Z,1009.4
2017-12-13T01:50:56.299Z,1009.38
2017-12-13T01:52:04.972Z,1009.39
2017-12-13T01:53:14.175Z,1009.33
2017-12-13T01:54:23.117Z,1009.29
2017-12-13T01:55:32.057Z,1009.21
2017-12-13T01:56:40.726Z,1009.17
2017-12-13T01:57:49.423Z,1009.17
2017-12-13T01:58:58.617Z,1009.1
2017-12-13T02:00:07.839Z,1009.01
2017-12-13T02:01:17.304Z,1008.97
2017-12-13T02:02:26.004Z,1008.93
2017-12-13T02:03:35.224Z,1008.92
2017-12-13T02:04:44.426Z,1008.94
2017-12-13T02:05:53.379Z,1008.95
2017-12-13T02:07:02.316Z,1008.95
2017-12-13T02:08:11.248Z,1008.89
2017-12-13T02:09:20.189Z,1008.92
2017-12-13T02:10:29.674Z,1008.9
2017-12-13T02:11:38.608Z,1008.91
2017-12-13T02:12:47.267Z,1008.92
2017-12-13T02:13:56.209Z,1008.92
2017-12-13T02:15:05.153Z,1008.91
2017-12-13T02:16:14.881Z,1008.88
2017-12-13T02:17:23.566Z,1008.82
2017-12-13T02:18:33.041Z,1008.77
2017-12-13T02:19:42.244Z,1008.73
2017-12-13T02:20:51.712Z,1008.77
2017-12-13T02:22:00.661Z,1008.71
2017-12-13T02:23:09.351Z,1008.69
2017-12-13T02:24:18.822Z,1008.74
2017-12-13T02:25:28.276Z,1008.69
2017-12-13T02:26:38.000Z,1008.7
2017-12-13T02:27:46.676Z,1008.63
2017-12-13T02:28:55.887Z,1008.63
2017-12-13T02:30:04.845Z,1008.55
2017-12-13T02:31:13.801Z,1008.58
2017-12-13T02:32:23.015Z,1008.58
2017-12-13T02:33:31.972Z,1008.55
2017-12-13T02:34:41.505Z,1008.5
2017-12-13T02:35:51.232Z,1008.46
2017-12-13T02:37:00.161Z,1008.44
2017-12-13T02:38:09.383Z,1008.41
2017-12-13T02:39:18.301Z,1008.37
2017-12-13T02:40:26.978Z,1008.42
2017-12-13T02:41:35.919Z,1008.44
2017-12-13T02:42:45.134Z,1008.4
2017-12-13T02:43:54.595Z,1008.39
2017-12-13T02:45:03.864Z,1008.36
2017-12-13T02:46:13.314Z,1008.41
2017-12-13T02:47:22.783Z,1008.41
2017-12-13T02:48:31.986Z,1008.42
2017-12-13T02:49:40.927Z,1008.36
2017-12-13T02:50:50.963Z,1008.32
2017-12-13T02:51:59.911Z,1008.28
2017-12-13T02:53:09.369Z,1008.29
2017-12-13T02:54:18.593Z,1008.28
2017-12-13T02:55:27.620Z,1008.25
2017-12-13T02:56:36.327Z,1008.23
2017-12-13T02:57:45.831Z,1008.15
2017-12-13T02:58:55.031Z,1008.17
2017-12-13T03:00:04.222Z,1008.17
2017-12-13T03:01:13.415Z,1008.11
2017-12-13T03:02:22.346Z,1008.03
2017-12-13T03:03:31.564Z,1008.04
2017-12-13T03:04:41.031Z,1008.04
2017-12-13T03:05:49.696Z,1007.99
2017-12-13T03:06:58.890Z,1008.03
2017-12-13T03:08:07.600Z,1008.05
2017-12-13T03:09:16.546Z,1008
2017-12-13T03:10:25.754Z,1007.99
2017-12-13T03:11:35.474Z,1007.94
2017-12-13T03:12:44.432Z,1007.96
2017-12-13T03:13:53.102Z,1007.88
2017-12-13T03:15:02.561Z,1007.86
2017-12-13T03:16:11.755Z,1007.81
2017-12-13T03:17:20.745Z,1007.81
2017-12-13T03:18:29.941Z,1007.82
2017-12-13T03:19:38.931Z,1007.81
2017-12-13T03:20:48.393Z,1007.74
2017-12-13T03:21:57.337Z,1007.74
2017-12-13T03:23:06.314Z,1007.72
2017-12-13T03:24:15.238Z,1007.68
2017-12-13T03:25:23.910Z,1007.66
2017-12-13T03:26:33.165Z,1007.68
2017-12-13T03:27:42.629Z,1007.71
2017-12-13T03:28:51.624Z,1007.71
2017-12-13T03:30:00.565Z,1007.62
2017-12-13T03:31:10.047Z,1007.65
2017-12-13T03:32:19.782Z,1007.57
2017-12-13T03:33:28.975Z,1007.54
2017-12-13T03:34:38.162Z,1007.49
2017-12-13T03:35:47.825Z,1007.45
2017-12-13T03:36:56.721Z,1007.42
2017-12-13T03:38:05.385Z,1007.39
2017-12-13T03:39:14.326Z,1007.39
2017-12-13T03:40:23.536Z,1007.36
2017-12-13T03:41:32.200Z,1007.31
2017-12-13T03:42:41.665Z,1007.34
2017-12-13T03:43:50.870Z,1007.33
2017-12-13T03:44:59.540Z,1007.29
2017-12-13T03:46:08.730Z,1007.25
2017-12-13T03:47:17.412Z,1007.29
2017-12-13T03:48:26.339Z,1007.26
2017-12-13T03:49:35.800Z,1007.23
2017-12-13T03:50:45.009Z,1007.21
2017-12-13T03:51:53.677Z,1007.26
2017-12-13T03:53:03.141Z,1007.21
2017-12-13T03:54:12.606Z,1007.19
2017-12-13T03:55:21.540Z,1007.18
2017-12-13T03:56:31.017Z,1007.15
2017-12-13T03:57:40.238Z,1007.2
2017-12-13T03:58:49.702Z,1007.16
2017-12-13T03:59:58.907Z,1007.19
2017-12-13T04:01:08.643Z,1007.14
2017-12-13T04:02:17.845Z,1007.12
2017-12-13T04:03:26.520Z,1007.13
2017-12-13T04:04:35.480Z,1007.07
2017-12-13T04:05:44.425Z,1007.04
2017-12-13T04:06:54.148Z,1007.05
2017-12-13T04:08:03.093Z,1007.06
2017-12-13T04:09:12.032Z,1007.04
2017-12-13T04:10:20.984Z,1007.05
2017-12-13T04:11:30.189Z,1007
2017-12-13T04:12:39.404Z,1007.02
2017-12-13T04:13:48.882Z,1006.95
2017-12-13T04:14:57.587Z,1006.99
2017-12-13T04:16:06.831Z,1006.99
2017-12-13T04:17:16.639Z,1006.96
2017-12-13T04:18:25.828Z,1006.96
2017-12-13T04:19:34.766Z,1006.99
2017-12-13T04:20:43.713Z,1006.96
2017-12-13T04:21:52.653Z,1006.95
2017-12-13T04:23:02.115Z,1006.92
2017-12-13T04:24:11.058Z,1006.91
2017-12-13T04:25:20.518Z,1006.9
2017-12-13T04:26:29.986Z,1006.88
2017-12-13T04:27:39.441Z,1006.84
2017-12-13T04:28:48.650Z,1006.81
2017-12-13T04:29:57.610Z,1006.78
2017-12-13T04:31:07.388Z,1006.74
2017-12-13T04:32:16.588Z,1006.69
2017-12-13T04:33:25.913Z,1006.68
2017-12-13T04:34:35.354Z,1006.64
2017-12-13T04:35:44.289Z,1006.64
2017-12-13T04:36:53.290Z,1006.63
2017-12-13T04:38:02.481Z,1006.62
2017-12-13T04:39:11.678Z,1006.6
2017-12-13T04:40:20.614Z,1006.55
2017-12-13T04:41:29.551Z,1006.61
2017-12-13T04:42:38.498Z,1006.55
2017-12-13T04:43:47.168Z,1006.59
2017-12-13T04:44:56.391Z,1006.56
2017-12-13T04:46:05.602Z,1006.5
2017-12-13T04:47:14.810Z,1006.5
2017-12-13T04:48:23.751Z,1006.46
2017-12-13T04:49:32.965Z,1006.42
2017-12-13T04:50:41.640Z,1006.42
2017-12-13T04:51:50.575Z,1006.4
2017-12-13T04:52:59.506Z,1006.46
2017-12-13T04:54:08.465Z,1006.37
2017-12-13T04:55:17.668Z,1006.39
2017-12-13T04:56:26.615Z,1006.4
2017-12-13T04:57:35.555Z,1006.32
2017-12-13T04:58:44.515Z,1006.25
2017-12-13T04:59:53.739Z,1006.22
2017-12-13T05:01:03.220Z,1006.21
2017-12-13T05:02:12.422Z,1006.26
2017-12-13T05:03:21.423Z,1006.24
2017-12-13T05:04:30.353Z,1006.19
2017-12-13T05:05:39.025Z,1006.17
2017-12-13T05:06:47.974Z,1006.18
2017-12-13T05:07:56.906Z,1006.11
2017-12-13T05:09:06.374Z,1006.06
2017-12-13T05:10:15.065Z,1006.03
2017-12-13T05:11:24.273Z,1006.05
2017-12-13T05:12:33.244Z,1006.06
2017-12-13T05:13:42.969Z,1006.01
2017-12-13T05:14:51.646Z,1005.99
2017-12-13T05:16:00.317Z,1005.97
2017-12-13T05:17:09.783Z,1005.94
2017-12-13T05:18:18.721Z,1005.97
2017-12-13T05:19:27.672Z,1005.94
2017-12-13T05:20:36.379Z,1005.93
2017-12-13T05:21:45.324Z,1006
2017-12-13T05:22:54.259Z,1005.95
2017-12-13T05:24:03.189Z,1005.98
2017-12-13T05:25:12.387Z,1005.95
2017-12-13T05:26:22.113Z,1005.96
2017-12-13T05:27:30.845Z,1005.98
2017-12-13T05:28:39.529Z,1006
2017-12-13T05:29:48.462Z,1006.01
2017-12-13T05:30:57.408Z,1005.98
2017-12-13T05:32:06.593Z,1005.96
2017-12-13T05:33:15.274Z,1005.99
2017-12-13T05:34:24.219Z,1005.94
2017-12-13T05:35:32.945Z,1005.91
2017-12-13T05:36:42.197Z,1005.89
2017-12-13T05:37:51.659Z,1005.93
2017-12-13T05:39:00.597Z,1005.87
2017-12-13T05:40:09.814Z,1005.83
2017-12-13T05:41:18.754Z,1005.79
2017-12-13T05:42:28.208Z,1005.77
2017-12-13T05:43:37.450Z,1005.74
2017-12-13T05:44:46.413Z,1005.72
2017-12-13T05:45:55.360Z,1005.67
2017-12-13T05:47:04.853Z,1005.58
2017-12-13T05:48:13.810Z,1005.61
2017-12-13T05:49:22.845Z,1005.5
2017-12-13T05:50:31.790Z,1005.46
2017-12-13T05:51:41.001Z,1005.45
2017-12-13T05:52:49.680Z,1005.45
2017-12-13T05:53:58.907Z,1005.43
2017-12-13T05:55:08.136Z,1005.45
2017-12-13T05:56:16.825Z,1005.39
2017-12-13T05:57:26.292Z,1005.34
2017-12-13T05:58:35.240Z,1005.39
2017-12-13T05:59:44.172Z,1005.38
2017-12-13T06:00:53.145Z,1005.34
2017-12-13T06:02:01.835Z,1005.29
2017-12-13T06:03:11.040Z,1005.28
2017-12-13T06:04:20.239Z,1005.23
2017-12-13T06:05:29.186Z,1005.26
2017-12-13T06:06:37.896Z,1005.2
2017-12-13T06:07:47.110Z,1005.23
2017-12-13T06:08:56.317Z,1005.2
2017-12-13T06:10:05.255Z,1005.2
2017-12-13T06:11:14.188Z,1005.15
2017-12-13T06:12:23.659Z,1005.12
2017-12-13T06:13:33.117Z,1005.11
2017-12-13T06:14:42.569Z,1005.06
2017-12-13T06:15:51.771Z,1005.06
2017-12-13T06:17:00.976Z,1005.11
2017-12-13T06:18:10.184Z,1005.04
2017-12-13T06:19:19.125Z,1005.04
2017-12-13T06:20:28.085Z,1005.05
2017-12-13T06:21:37.283Z,1005.03
2017-12-13T06:22:46.753Z,1005.01
2017-12-13T06:23:55.962Z,1004.99
2017-12-13T06:25:04.634Z,1004.98
2017-12-13T06:26:13.858Z,1005.02
2017-12-13T06:27:23.054Z,1004.96
2017-12-13T06:28:31.748Z,1004.92
2017-12-13T06:29:40.693Z,1004.93
2017-12-13T06:30:49.933Z,1004.96
2017-12-13T06:31:59.395Z,1004.9
2017-12-13T06:33:08.592Z,1004.87
2017-12-13T06:34:17.273Z,1004.88
2017-12-13T06:35:25.951Z,1004.84
2017-12-13T06:36:34.891Z,1004.73
2017-12-13T06:37:43.837Z,1004.64
2017-12-13T06:38:52.790Z,1004.67
2017-12-13T06:40:01.716Z,1004.59
2017-12-13T06:41:10.702Z,1004.6
2017-12-13T06:42:19.376Z,1004.55
2017-12-13T06:43:28.058Z,1004.52
2017-12-13T06:44:37.027Z,1004.52
2017-12-13T06:45:45.969Z,1004.5
2017-12-13T06:46:54.908Z,1004.54
2017-12-13T06:48:04.382Z,1004.45
2017-12-13T06:49:13.052Z,1004.41
2017-12-13T06:50:22.002Z,1004.42
2017-12-13T06:51:30.936Z,1004.38
2017-12-13T06:52:40.129Z,1004.34
2017-12-13T06:53:48.876Z,1004.29
2017-12-13T06:54:58.086Z,1004.28
2017-12-13T06:56:07.013Z,1004.24
2017-12-13T06:57:15.704Z,1004.23
2017-12-13T06:58:24.909Z,1004.18
2017-12-13T06:59:33.872Z,1004.15
2017-12-13T07:00:42.539Z,1004.15
2017-12-13T07:01:51.493Z,1004.13
2017-12-13T07:03:00.457Z,1004.19
2017-12-13T07:04:09.917Z,1004.18
2017-12-13T07:05:19.116Z,1004.19
2017-12-13T07:06:28.323Z,1004.21
2017-12-13T07:07:37.538Z,1004.3
2017-12-13T07:08:46.213Z,1004.32
2017-12-13T07:09:55.163Z,1004.34
2017-12-13T07:11:04.100Z,1004.21
2017-12-13T07:12:13.042Z,1004.26
2017-12-13T07:13:21.977Z,1004.22
2017-12-13T07:14:30.650Z,1004.25
2017-12-13T07:15:39.588Z,1004.2
2017-12-13T07:16:48.521Z,1004.24
2017-12-13T07:17:57.742Z,1004.18
2017-12-13T07:19:06.940Z,1004.16
2017-12-13T07:20:15.868Z,1004.16
2017-12-13T07:21:25.077Z,1004.09
2017-12-13T07:22:34.528Z,1004.07
2017-12-13T07:23:43.473Z,1004.03
2017-12-13T07:24:52.171Z,1003.96
2017-12-13T07:26:01.381Z,1003.95
2017-12-13T07:27:10.590Z,1003.88
2017-12-13T07:28:19.269Z,1003.84
2017-12-13T07:29:28.475Z,1003.8
2017-12-13T07:30:37.223Z,1003.79
2017-12-13T07:31:46.425Z,1003.73
2017-12-13T07:32:55.652Z,1003.7
2017-12-13T07:34:04.868Z,1003.72
2017-12-13T07:35:13.818Z,1003.73
2017-12-13T07:36:23.031Z,1003.71
2017-12-13T07:37:31.986Z,1003.66
2017-12-13T07:38:41.201Z,1003.66
2017-12-13T07:39:50.160Z,1003.68
2017-12-13T07:40:59.394Z,1003.66
2017-12-13T07:42:08.375Z,1003.65
2017-12-13T07:43:17.327Z,1003.6
2017-12-13T07:44:26.354Z,1003.53
2017-12-13T07:45:35.575Z,1003.51
2017-12-13T07:46:44.263Z,1003.5
2017-12-13T07:47:54.013Z,1003.51
2017-12-13T07:49:02.697Z,1003.49
2017-12-13T07:50:11.899Z,1003.42
2017-12-13T07:51:21.375Z,1003.35
2017-12-13T07:52:30.072Z,1003.35
2017-12-13T07:53:39.288Z,1003.36
2017-12-13T07:54:48.316Z,1003.33
2017-12-13T07:55:57.589Z,1003.29
2017-12-13T07:57:06.791Z,1003.27
2017-12-13T07:58:15.729Z,1003.26
2017-12-13T07:59:24.412Z,1003.25
2017-12-13T08:00:33.884Z,1003.19
2017-12-13T08:01:42.616Z,1003.17
2017-12-13T08:02:51.633Z,1003.2
2017-12-13T08:04:01.107Z,1003.13
2017-12-13T08:05:10.097Z,1003.14
2017-12-13T08:06:19.038Z,1003.09
2017-12-13T08:07:27.980Z,1003.05
2017-12-13T08:08:37.196Z,1003.01
2017-12-13T08:09:45.868Z,1003.01
2017-12-13T08:10:55.071Z,1002.96
2017-12-13T08:12:03.759Z,1002.87
2017-12-13T08:13:12.978Z,1002.83
2017-12-13T08:14:21.962Z,1002.75
2017-12-13T08:15:31.183Z,1002.8
2017-12-13T08:16:39.958Z,1002.73
2017-12-13T08:17:49.456Z,1002.83
2017-12-13T08:18:58.196Z,1002.82
2017-12-13T08:20:07.185Z,1002.79
2017-12-13T08:21:16.718Z,1002.77
2017-12-13T08:22:26.762Z,1002.77
2017-12-13T08:23:35.473Z,1002.79
2017-12-13T08:24:44.725Z,1002.74
2017-12-13T08:25:53.715Z,1002.75
2017-12-13T08:27:02.739Z,1002.68
2017-12-13T08:28:12.682Z,1002.64
2017-12-13T08:29:21.928Z,1002.54
2017-12-13T08:30:30.957Z,1002.53
2017-12-13T08:31:40.191Z,1002.45
2017-12-13T08:32:49.159Z,1002.4
2017-12-13T08:33:58.126Z,1002.39
2017-12-13T08:35:07.362Z,1002.33
2017-12-13T08:36:16.582Z,1002.29
2017-12-13T08:37:25.540Z,1002.28
2017-12-13T08:38:35.089Z,1002.29
2017-12-13T08:39:44.046Z,1002.25
2017-12-13T08:40:53.516Z,1002.29
2017-12-13T08:42:02.735Z,1002.23
2017-12-13T08:43:12.235Z,1002.32
2017-12-13T08:44:21.788Z,1002.3
2017-12-13T08:45:30.728Z,1002.29
2017-12-13T08:46:39.684Z,1002.32
2017-12-13T08:47:48.639Z,1002.28
2017-12-13T08:48:57.602Z,1002.24
2017-12-13T08:50:06.830Z,1002.19
2017-12-13T08:51:15.803Z,1002.19
2017-12-13T08:52:24.780Z,1002.2
2017-12-13T08:53:33.757Z,1002.16
2017-12-13T08:54:42.983Z,1002.13
2017-12-13T08:55:52.205Z,1002.14
2017-12-13T08:57:01.688Z,1002.09
2017-12-13T08:58:10.385Z,1002.11
2017-12-13T08:59:19.096Z,1002.06
2017-12-13T09:00:28.572Z,1002.06
2017-12-13T09:01:37.780Z,1001.99
2017-12-13T09:02:47.251Z,1001.98
2017-12-13T09:03:56.469Z,1001.94
2017-12-13T09:05:05.694Z,1001.94
2017-12-13T09:06:15.152Z,1001.89
2017-12-13T09:07:24.889Z,1001.88
2017-12-13T09:08:33.856Z,1001.88
2017-12-13T09:09:43.713Z,1001.8
2017-12-13T09:10:52.993Z,1001.85
2017-12-13T09:12:02.501Z,1001.85
2017-12-13T09:13:11.725Z,1001.72
2017-12-13T09:14:20.946Z,1001.71
2017-12-13T09:15:30.404Z,1001.64
2017-12-13T09:16:39.349Z,1001.62
2017-12-13T09:17:48.567Z,1001.55
2017-12-13T09:18:57.519Z,1001.51
2017-12-13T09:20:07.257Z,1001.49
2017-12-13T09:21:16.482Z,1001.4
2017-12-13T09:22:25.444Z,1001.36
2017-12-13T09:23:34.652Z,1001.4
2017-12-13T09:24:43.625Z,1001.42
2017-12-13T09:25:52.340Z,1001.38
2017-12-13T09:27:01.824Z,1001.37
2017-12-13T09:28:11.045Z,1001.29
2017-12-13T09:29:20.011Z,1001.36
2017-12-13T09:30:29.496Z,1001.33
2017-12-13T09:31:38.217Z,1001.27
2017-12-13T09:32:47.170Z,1001.27
2017-12-13T09:33:56.394Z,1001.28
2017-12-13T09:35:05.628Z,1001.22
2017-12-13T09:36:14.859Z,1001.15
2017-12-13T09:37:24.340Z,1001.09
2017-12-13T09:38:33.815Z,1001.02
2017-12-13T09:39:43.021Z,1000.99
2017-12-13T09:40:52.221Z,1001.06
2017-12-13T09:42:01.963Z,1001.03
2017-12-13T09:43:11.193Z,1001.02
2017-12-13T09:44:20.145Z,1000.94
2017-12-13T09:45:29.937Z,1000.85
2017-12-13T09:46:39.145Z,1000.88
2017-12-13T09:47:47.852Z,1000.8
2017-12-13T09:48:56.540Z,1000.78
2017-12-13T09:50:05.764Z,1000.75
2017-12-13T09:51:14.781Z,1000.65
2017-12-13T09:52:24.318Z,1000.7
2017-12-13T09:53:33.542Z,1000.72
2017-12-13T09:54:42.235Z,1000.63
2017-12-13T09:55:51.619Z,1000.6
2017-12-13T09:57:00.575Z,1000.61
2017-12-13T09:58:10.326Z,1000.53
2017-12-13T09:59:19.306Z,1000.52
2017-12-13T10:00:28.328Z,1000.46
2017-12-13T10:01:37.537Z,1000.39
2017-12-13T10:02:46.774Z,1000.33
2017-12-13T10:03:55.733Z,1000.34
2017-12-13T10:05:04.696Z,1000.32
2017-12-13T10:06:14.474Z,1000.34
2017-12-13T10:07:23.702Z,1000.34
2017-12-13T10:08:33.239Z,1000.32
2017-12-13T10:09:42.448Z,1000.37
2017-12-13T10:10:51.406Z,1000.3
2017-12-13T10:12:00.642Z,1000.27
2017-12-13T10:13:09.340Z,1000.28
2017-12-13T10:14:19.332Z,1000.15
2017-12-13T10:15:28.559Z,1000.12
2017-12-13T10:16:37.517Z,1000.22
2017-12-13T10:17:46.772Z,999.98
2017-12-13T10:18:56.274Z,1000.02
2017-12-13T10:20:05.498Z,999.99
2017-12-13T10:21:14.743Z,999.82
2017-12-13T10:22:23.985Z,999.87
2017-12-13T10:23:33.460Z,999.86
2017-12-13T10:24:42.959Z,999.68
2017-12-13T10:25:52.181Z,999.72
2017-12-13T10:27:01.120Z,999.75
2017-12-13T10:28:10.603Z,999.52
2017-12-13T10:29:19.550Z,999.55
2017-12-13T10:30:28.271Z,999.59
2017-12-13T10:31:37.227Z,999.46
2017-12-13T10:32:46.199Z,999.5
2017-12-13T10:33:55.150Z,999.36
2017-12-13T10:35:03.942Z,999.45
2017-12-13T10:36:13.691Z,999.31
2017-12-13T10:37:22.685Z,999.26
2017-12-13T10:38:31.908Z,999.26
2017-12-13T10:39:41.669Z,999.3
2017-12-13T10:40:50.615Z,999.16
2017-12-13T10:41:59.594Z,999.11
2017-12-13T10:43:08.811Z,998.99
2017-12-13T10:44:17.783Z,999.06
2017-12-13T10:45:27.254Z,998.96
2017-12-13T10:46:36.452Z,998.94
2017-12-13T10:47:45.688Z,998.94
2017-12-13T10:48:54.639Z,998.9
2017-12-13T10:50:03.597Z,998.85
2017-12-13T10:51:13.336Z,998.82
2017-12-13T10:52:22.555Z,998.79
2017-12-13T10:53:31.778Z,998.73
2017-12-13T10:54:40.735Z,998.73
2017-12-13T10:55:50.469Z,998.68
2017-12-13T10:56:59.942Z,998.65
2017-12-13T10:58:09.171Z,998.64
2017-12-13T10:59:17.880Z,998.64
2017-12-13T11:00:27.374Z,998.61
2017-12-13T11:01:36.600Z,998.59
2017-12-13T11:02:45.549Z,998.54
2017-12-13T11:03:55.034Z,998.54
2017-12-13T11:05:04.532Z,998.5
2017-12-13T11:06:13.759Z,998.44
2017-12-13T11:07:22.713Z,998.37
2017-12-13T11:08:32.220Z,998.45
2017-12-13T11:09:41.270Z,998.39
2017-12-13T11:10:51.038Z,998.4
2017-12-13T11:12:00.249Z,998.26
2017-12-13T11:13:09.226Z,998.31
2017-12-13T11:14:18.273Z,998.19
2017-12-13T11:15:27.482Z,998.26
2017-12-13T11:16:36.692Z,998.16
2017-12-13T11:17:45.390Z,998.12
2017-12-13T11:18:54.085Z,998.07
2017-12-13T11:20:03.032Z,998.11
2017-12-13T11:21:11.726Z,998.04
2017-12-13T11:22:21.200Z,998.03
2017-12-13T11:23:30.691Z,997.97
2017-12-13T11:24:39.665Z,997.94
2017-12-13T11:25:48.619Z,998.02
2017-12-13T11:26:58.126Z,997.89
2017-12-13T11:28:07.334Z,997.94
2017-12-13T11:29:16.294Z,997.87
2017-12-13T11:30:25.776Z,997.86
2017-12-13T11:31:34.735Z,997.79
2017-12-13T11:32:43.425Z,997.81
2017-12-13T11:33:52.911Z,997.77
2017-12-13T11:35:02.130Z,997.82
2017-12-13T11:36:11.355Z,997.74
2017-12-13T11:37:20.056Z,997.75
2017-12-13T11:38:29.267Z,997.75
2017-12-13T11:39:38.496Z,997.72
2017-12-13T11:40:47.443Z,997.56
2017-12-13T11:41:56.926Z,997.59
2017-12-13T11:43:05.905Z,997.49
2017-12-13T11:44:14.588Z,997.49
2017-12-13T11:45:23.789Z,997.48
2017-12-13T11:46:33.256Z,997.48
2017-12-13T11:47:42.218Z,997.48
2017-12-13T11:48:51.969Z,997.47
2017-12-13T11:50:01.447Z,997.34
2017-12-13T11:51:10.940Z,997.37
2017-12-13T11:52:20.408Z,997.28
2017-12-13T11:53:29.544Z,997.26
2017-12-13T11:54:38.515Z,997.28
2017-12-13T11:55:48.002Z,997.18
2017-12-13T11:56:57.473Z,997.2
2017-12-13T11:58:06.943Z,997.15
2017-12-13T11:59:16.725Z,997.12
2017-12-13T12:00:25.919Z,997.15
2017-12-13T12:01:35.127Z,997.05
2017-12-13T12:02:44.350Z,997.02
2017-12-13T12:03:53.295Z,997.02
2017-12-13T12:05:02.761Z,996.99
2017-12-13T12:06:11.734Z,996.95
2017-12-13T12:07:20.422Z,996.96
2017-12-13T12:08:29.643Z,996.87
2017-12-13T12:09:38.879Z,996.87
2017-12-13T12:10:48.160Z,996.8
2017-12-13T12:11:56.871Z,996.83
2017-12-13T12:13:05.834Z,996.89
2017-12-13T12:14:15.580Z,996.81
2017-12-13T12:15:24.806Z,996.75
2017-12-13T12:16:34.073Z,996.76
2017-12-13T12:17:43.322Z,996.8
2017-12-13T12:18:52.532Z,996.72
2017-12-13T12:20:02.019Z,996.71
2017-12-13T12:21:11.030Z,996.71
2017-12-13T12:22:20.539Z,996.71
2017-12-13T12:23:29.252Z,996.75
2017-12-13T12:24:38.003Z,996.72
2017-12-13T12:25:47.232Z,996.6
2017-12-13T12:26:55.951Z,996.69
2017-12-13T12:28:04.655Z,996.65
2017-12-13T12:29:13.619Z,996.63
2017-12-13T12:30:22.595Z,996.64
2017-12-13T12:31:31.846Z,996.65
2017-12-13T12:32:41.592Z,996.63
2017-12-13T12:33:50.359Z,996.59
2017-12-13T12:35:00.116Z,996.54
2017-12-13T12:36:09.320Z,996.56
2017-12-13T12:37:18.291Z,996.54
2017-12-13T12:38:27.523Z,996.47
2017-12-13T12:39:36.732Z,996.44
2017-12-13T12:40:45.439Z,996.45
2017-12-13T12:41:54.647Z,996.42
2017-12-13T12:43:03.856Z,996.48
2017-12-13T12:44:13.347Z,996.46
2017-12-13T12:45:22.553Z,996.4
2017-12-13T12:46:31.766Z,996.44
2017-12-13T12:47:40.980Z,996.45
2017-12-13T12:48:50.497Z,996.34
2017-12-13T12:49:59.439Z,996.33
2017-12-13T12:51:08.405Z,996.37
2017-12-13T12:52:17.621Z,996.34
2017-12-13T12:53:26.616Z,996.39
2017-12-13T12:54:35.555Z,996.31
2017-12-13T12:55:44.779Z,996.3
2017-12-13T12:56:53.765Z,996.26
2017-12-13T12:58:02.795Z,996.17
2017-12-13T12:59:12.277Z,996.22
2017-12-13T13:00:21.753Z,996.13
2017-12-13T13:01:30.990Z,996.08
2017-12-13T13:02:40.489Z,996.09
2017-12-13T13:03:49.999Z,996.09
2017-12-13T13:04:59.207Z,996.04
2017-12-13T13:06:08.939Z,996.18
2017-12-13T13:07:17.876Z,996.04
2017-12-13T13:08:27.083Z,996.13
2017-12-13T13:09:36.309Z,996.11
2017-12-13T13:10:45.775Z,995.98
2017-12-13T13:11:54.481Z,995.95
2017-12-13T13:13:03.711Z,996.05
2017-12-13T13:14:12.926Z,996.02
2017-12-13T13:15:21.629Z,996.1
2017-12-13T13:16:30.576Z,996.03
2017-12-13T13:17:39.281Z,996.06
2017-12-13T13:18:48.508Z,995.99
2017-12-13T13:19:57.712Z,996.05
2017-12-13T13:21:06.686Z,995.93
2017-12-13T13:22:15.650Z,996.02
2017-12-13T13:23:24.645Z,996.01
2017-12-13T13:24:33.875Z,995.95
2017-12-13T13:25:43.336Z,995.89
2017-12-13T13:26:52.305Z,995.91
2017-12-13T13:28:01.518Z,995.87
2017-12-13T13:29:10.997Z,995.87
2017-12-13T13:30:19.993Z,995.79
2017-12-13T13:31:29.466Z,995.84
2017-12-13T13:32:38.425Z,995.79
2017-12-13T13:33:47.659Z,995.72
2017-12-13T13:34:56.613Z,995.77
2017-12-13T13:36:05.817Z,995.67
2017-12-13T13:37:14.776Z,995.74
2017-12-13T13:38:23.727Z,995.69
2017-12-13T13:39:32.690Z,995.65
2017-12-13T13:40:41.908Z,995.61
2017-12-13T13:41:51.126Z,995.6
2017-12-13T13:42:59.829Z,995.66
2017-12-13T13:44:08.783Z,995.56
2017-12-13T13:45:18.029Z,995.57
2017-12-13T13:46:26.988Z,995.59
2017-12-13T13:47:36.241Z,995.58
2017-12-13T13:48:45.465Z,995.53
2017-12-13T13:49:54.684Z,995.5
2017-12-13T13:51:03.995Z,995.54
2017-12-13T13:52:12.958Z,995.49
2017-12-13T13:53:22.152Z,995.48
2017-12-13T13:54:33.404Z,995.49
2017-12-13T13:55:42.339Z,995.48
2017-12-13T13:56:51.049Z,995.56
2017-12-13T13:58:00.007Z,995.44
2017-12-13T13:59:09.221Z,995.42
2017-12-13T14:00:18.179Z,995.45
2017-12-13T14:01:27.410Z,995.35
2017-12-13T14:02:37.494Z,995.3
2017-12-13T14:03:46.973Z,995.39
2017-12-13T14:04:56.210Z,995.42
2017-12-13T14:06:05.938Z,995.36